»·PEaware :: N121JR KSNA-KSBD

N121JR :: KSNA-KSBD

FLIGHT INFORMATION

Flight Status: Arrived
Operator: Privately registered:
United States
More flights under this callsign
Pilot: Geoffrey K. (30224)
Aircraft: CESSNA T210 TURBO CENTURION
(T210)
More flights by this aircraft type
Origin: KSNA John Wayne-Orange Co
United States
Destination: KSBD San Bernardino Intl
United States
More flights between these airports :: More routes between these airports
Route: +SLI V8 PDZ
File this flight plan on PilotEdge
Remarks: TEC ROUTE CSTP13
Altitude:
(Current/Filed)
5,000ft
Speed:
(Current/Filed)
170kts
Departed: 13-Jul-20 10:19 PM
Arrived: 13-Jul-20 11:18 PM
Distance/Time
Traveled:
40nm/0:59
Distance/Time
To Go:
Arrived

Flight Plot

Page will automatically refresh every two minutes.


Map Options




Map Legend


Flown Route
Filed Route
Departure Airport
Arrival Airport
Navaid (VOR, NDB)
Fix

Horizontal Profiles

Position Reports

Time Latitude Longitude Heading Altitude Ground
Speed
13-Jul-20 22:08 33.676207 -117.871103 212 60ft 0kts
13-Jul-20 22:09 33.676207 -117.871103 212 60ft 0kts
13-Jul-20 22:10 33.676207 -117.871103 212 60ft 0kts
13-Jul-20 22:11 33.676207 -117.871103 212 60ft 0kts
13-Jul-20 22:12 33.676207 -117.871103 212 60ft 0kts
13-Jul-20 22:13 33.676207 -117.871103 212 60ft 0kts
13-Jul-20 22:14 33.677640 -117.869137 25 60ft 23kts
13-Jul-20 22:15 33.681228 -117.866485 104 60ft 0kts
13-Jul-20 22:16 33.681228 -117.866485 104 60ft 0kts
13-Jul-20 22:17 33.681228 -117.866485 104 60ft 0kts
13-Jul-20 22:18 33.671050 -117.871978 206 364ft 90kts
13-Jul-20 22:19 33.651662 -117.888665 211 2019ft 94kts
13-Jul-20 22:20 33.627457 -117.895092 40 2193ft 166kts
13-Jul-20 22:21 33.631705 -117.887048 89 2079ft 183kts
13-Jul-20 22:22 33.631705 -117.887048 89 2079ft 183kts
13-Jul-20 22:47 33.676207 -117.871103 212 60ft 0kts
13-Jul-20 22:48 33.676093 -117.870160 33 60ft 14kts
13-Jul-20 22:49 33.677656 -117.869100 28 60ft 3kts
13-Jul-20 22:50 33.669794 -117.872612 210 145ft 96kts
13-Jul-20 22:51 33.657754 -117.885741 225 973ft 84kts
13-Jul-20 22:52 33.649012 -117.903846 245 1512ft 95kts
13-Jul-20 22:53 33.626146 -117.915855 238 2055ft 113kts
13-Jul-20 22:54 33.646391 -117.931987 336 2701ft 108kts
13-Jul-20 22:55 33.670752 -117.947534 333 3646ft 98kts
13-Jul-20 22:56 33.693783 -117.963733 313 4644ft 95kts
13-Jul-20 22:57 33.714910 -117.988127 312 5077ft 125kts
13-Jul-20 22:58 33.739474 -118.019428 312 5064ft 129kts
13-Jul-20 22:59 33.763732 -118.051532 316 5058ft 130kts
13-Jul-20 23:00 33.790773 -118.030958 59 5063ft 143kts
13-Jul-20 23:01 33.808357 -117.987390 63 5065ft 145kts
13-Jul-20 23:02 33.824199 -117.942341 73 5066ft 147kts
13-Jul-20 23:03 33.830434 -117.894334 87 5069ft 146kts
13-Jul-20 23:04 33.839341 -117.841670 76 4979ft 179kts
13-Jul-20 23:05 33.853554 -117.783184 74 4977ft 183kts
13-Jul-20 23:06 33.868272 -117.724073 73 4976ft 184kts
13-Jul-20 23:07 33.883709 -117.665001 73 4964ft 185kts
13-Jul-20 23:08 33.898861 -117.605645 71 4965ft 185kts
13-Jul-20 23:09 33.914106 -117.546504 71 4965ft 185kts
13-Jul-20 23:10 33.939919 -117.494082 51 4966ft 183kts
13-Jul-20 23:11 33.969932 -117.444281 51 4970ft 183kts
13-Jul-20 23:12 34.001037 -117.394564 39 4743ft 190kts
13-Jul-20 23:13 34.043218 -117.355058 28 4168ft 194kts
13-Jul-20 23:14 34.071573 -117.316283 62 3627ft 133kts
13-Jul-20 23:16 34.082247 -117.280807 74 2737ft 110kts
13-Jul-20 23:17 34.090507 -117.251182 69 1128ft 68kts
13-Jul-20 23:18 34.093506 -117.242062 7 1099ft 11kts
13-Jul-20 23:19 34.094404 -117.242053 357 1099ft 0kts
13-Jul-20 23:20 34.094404 -117.242053 357 1099ft 0kts
13-Jul-20 23:21 34.094404 -117.242053 357 1099ft 0kts
13-Jul-20 23:22 34.094404 -117.242053 357 1099ft 0kts
13-Jul-20 23:23 34.094404 -117.242053 357 1099ft 0kts
13-Jul-20 23:24 34.094404 -117.242053 357 1099ft 0kts
13-Jul-20 23:25 34.094404 -117.242053 357 1099ft 0kts

Navigation Log

Ident Type
Flight plan parsing failed, navigation log unavailable